createdAt,value
2018-04-10T00:01:08.227Z,9.13
2018-04-10T00:04:06.905Z,10.03
2018-04-10T00:07:04.541Z,10.37
2018-04-10T00:09:34.883Z,7.53
2018-04-10T00:12:05.776Z,9.80
2018-04-10T00:14:36.996Z,9.10
2018-04-10T00:17:07.144Z,8.50
2018-04-10T00:26:30.191Z,9.00
2018-04-10T00:29:00.642Z,8.90
2018-04-10T00:34:32.692Z,9.43
2018-04-10T00:37:30.458Z,13.67
2018-04-10T00:40:21.974Z,11.27
2018-04-10T00:42:52.063Z,16.80
2018-04-10T00:45:22.412Z,10.37
2018-04-10T00:50:59.145Z,10.87
2018-04-10T00:54:00.143Z,10.83
2018-04-10T00:56:33.709Z,7.27
2018-04-10T00:59:08.261Z,7.43
2018-04-10T01:02:02.473Z,7.83
2018-04-10T01:10:59.754Z,12.47
2018-04-10T01:13:31.832Z,9.90
2018-04-10T01:16:01.934Z,11.87
2018-04-10T01:18:33.007Z,10.00
2018-04-10T01:21:03.863Z,13.10
2018-04-10T01:23:33.947Z,7.47
2018-04-10T01:26:04.388Z,12.57
2018-04-10T01:28:34.751Z,9.10
2018-04-10T01:31:04.871Z,14.13
2018-04-10T01:33:35.165Z,9.20
2018-04-10T01:36:05.457Z,15.67
2018-04-10T01:38:35.214Z,7.30
2018-04-10T01:41:05.327Z,11.00
2018-04-10T01:43:35.683Z,13.67
2018-04-10T01:46:05.763Z,8.57
2018-04-10T01:48:35.857Z,12.60
2018-04-10T01:51:06.732Z,12.17
2018-04-10T01:53:37.583Z,8.63
2018-04-10T01:56:08.419Z,11.13
2018-04-10T01:58:38.731Z,11.80
2018-04-10T02:01:08.487Z,7.90
2018-04-10T02:03:38.591Z,8.73
2018-04-10T02:06:08.907Z,7.43
2018-04-10T02:08:39.031Z,11.23
2018-04-10T02:11:09.327Z,11.90
2018-04-10T02:13:39.415Z,9.07
2018-04-10T02:16:09.167Z,11.40
2018-04-10T02:18:39.355Z,15.53
2018-04-10T02:21:09.527Z,14.73
2018-04-10T02:23:39.615Z,12.50
2018-04-10T02:26:10.480Z,14.57
2018-04-10T02:28:40.868Z,12.67
2018-04-10T02:31:10.956Z,11.57
2018-04-10T02:33:41.099Z,13.57
2018-04-10T02:36:11.200Z,10.70
2018-04-10T02:38:42.303Z,12.07
2018-04-10T02:41:12.873Z,13.43
2018-04-10T02:43:43.296Z,14.83
2018-04-10T02:46:14.455Z,13.20
2018-04-10T02:48:44.853Z,15.87
2018-04-10T02:51:14.984Z,10.70
2018-04-10T02:53:45.480Z,17.43
2018-04-10T02:56:15.948Z,13.30
2018-04-10T02:58:46.594Z,12.63
2018-04-10T03:01:17.085Z,10.53
2018-04-10T03:03:48.846Z,9.27
2018-04-10T03:06:19.111Z,14.53
2018-04-10T03:08:49.940Z,14.23
2018-04-10T03:11:20.127Z,16.13
2018-04-10T03:13:50.858Z,14.57
2018-04-10T03:16:21.103Z,14.53
2018-04-10T03:18:51.534Z,14.87
2018-04-10T03:21:21.896Z,15.80
2018-04-10T03:23:52.747Z,12.63
2018-04-10T03:26:23.636Z,18.43
2018-04-10T03:28:53.751Z,11.73
2018-04-10T03:31:24.010Z,13.73
2018-04-10T03:33:54.874Z,14.03
2018-04-10T03:36:25.747Z,13.93
2018-04-10T03:38:55.865Z,14.17
2018-04-10T03:41:25.936Z,14.83
2018-04-10T03:43:56.328Z,22.47
2018-04-10T03:46:26.695Z,14.67
2018-04-10T03:48:56.825Z,20.13
2018-04-10T03:51:26.955Z,18.50
2018-04-10T03:53:57.091Z,15.57
2018-04-10T03:56:27.209Z,16.40
2018-04-10T03:58:57.586Z,15.10
2018-04-10T04:01:27.673Z,17.30
2018-04-10T04:03:57.798Z,16.20
2018-04-10T04:06:27.863Z,19.67
2018-04-10T04:08:58.006Z,23.13
2018-04-10T04:11:28.031Z,15.83
2018-04-10T04:13:57.921Z,21.23
2018-04-10T04:16:44.931Z,17.63
2018-04-10T04:19:31.668Z,18.27
2018-04-10T04:22:18.247Z,15.40
2018-04-10T04:24:48.332Z,14.30
2018-04-10T04:27:18.626Z,16.10
2018-04-10T04:29:49.478Z,12.97
2018-04-10T04:32:20.350Z,11.60
2018-04-10T04:34:51.206Z,10.47
2018-04-10T04:37:22.078Z,13.27
2018-04-10T04:39:52.182Z,12.87
2018-04-10T04:42:22.063Z,9.77
2018-04-10T04:44:52.396Z,15.00
2018-04-10T04:47:23.278Z,12.07
2018-04-10T04:49:53.372Z,12.30
2018-04-10T04:52:23.514Z,11.60
2018-04-10T04:54:53.595Z,12.60
2018-04-10T04:57:23.691Z,12.07
2018-04-10T04:59:53.775Z,13.93
2018-04-10T05:02:23.883Z,12.60
2018-04-10T05:04:54.029Z,9.20
2018-04-10T05:07:24.763Z,10.00
2018-04-10T05:09:54.886Z,12.23
2018-04-10T05:12:25.289Z,9.93
2018-04-10T05:14:55.390Z,14.03
2018-04-10T05:17:26.279Z,14.00
2018-04-10T05:19:56.413Z,11.80
2018-04-10T05:22:26.502Z,16.47
2018-04-10T05:24:56.887Z,12.40
2018-04-10T05:27:27.736Z,10.50
2018-04-10T05:29:58.633Z,11.63
2018-04-10T05:32:28.903Z,13.93
2018-04-10T05:34:59.023Z,9.53
2018-04-10T05:37:29.406Z,13.17
2018-04-10T05:39:59.201Z,11.60
2018-04-10T05:42:30.249Z,10.73
2018-04-10T05:45:01.391Z,10.83
2018-04-10T05:47:31.533Z,10.40
2018-04-10T05:50:01.640Z,9.50
2018-04-10T05:52:31.735Z,8.93
2018-04-10T05:55:01.846Z,10.73
2018-04-10T05:57:32.647Z,8.80
2018-04-10T06:00:02.508Z,8.90
2018-04-10T06:02:32.791Z,7.73
2018-04-10T06:05:02.890Z,6.93
2018-04-10T06:07:32.969Z,7.50
2018-04-10T06:10:03.824Z,8.67
2018-04-10T06:12:33.854Z,7.83
2018-04-10T06:15:03.602Z,8.40
2018-04-10T06:17:34.486Z,8.87
2018-04-10T06:20:03.630Z,7.80
2018-04-10T06:22:34.536Z,9.10
2018-04-10T06:25:03.995Z,8.27
2018-04-10T06:27:34.086Z,10.27
2018-04-10T06:30:03.853Z,9.33
2018-04-10T06:32:33.952Z,9.57
2018-04-10T06:35:03.705Z,6.90
2018-04-10T06:37:34.074Z,7.87
2018-04-10T06:40:03.841Z,7.50
2018-04-10T06:42:34.936Z,7.53
2018-04-10T06:45:05.784Z,5.90
2018-04-10T06:47:36.123Z,7.43
2018-04-10T06:50:06.432Z,6.43
2018-04-10T06:52:36.536Z,6.87
2018-04-10T06:55:07.572Z,7.60
2018-04-10T06:57:38.421Z,6.23
2018-04-10T07:00:08.831Z,6.57
2018-04-10T07:02:38.916Z,5.83
2018-04-10T07:05:09.229Z,4.37
2018-04-10T07:07:39.318Z,5.53
2018-04-10T07:10:10.196Z,9.83
2018-04-10T07:12:40.308Z,4.80
2018-04-10T07:15:10.482Z,4.20
2018-04-10T07:17:40.917Z,6.10
2018-04-10T07:20:10.990Z,7.70
2018-04-10T07:22:41.271Z,4.17
2018-04-10T07:25:11.084Z,7.67
2018-04-10T07:27:41.213Z,8.93
2018-04-10T07:30:11.463Z,6.20
2018-04-10T07:32:41.546Z,9.60
2018-04-10T07:35:11.850Z,7.13
2018-04-10T07:37:41.928Z,7.73
2018-04-10T07:40:12.044Z,9.67
2018-04-10T07:42:42.353Z,7.17
2018-04-10T07:45:12.461Z,6.43
2018-04-10T07:47:42.543Z,5.33
2018-04-10T07:50:12.662Z,7.13
2018-04-10T07:52:42.726Z,6.97
2018-04-10T07:55:12.594Z,6.27
2018-04-10T07:57:42.948Z,4.03
2018-04-10T08:00:13.510Z,4.57
2018-04-10T08:02:44.377Z,8.23
2018-04-10T08:05:14.688Z,7.53
2018-04-10T08:07:44.786Z,6.13
2018-04-10T08:10:14.883Z,7.27
2018-04-10T08:12:44.955Z,7.17
2018-04-10T08:15:15.089Z,10.50
2018-04-10T08:17:45.348Z,10.00
2018-04-10T08:20:15.713Z,7.40
2018-04-10T08:22:46.015Z,7.70
2018-04-10T08:25:16.111Z,5.47
2018-04-10T08:27:46.212Z,4.33
2018-04-10T08:30:17.074Z,6.47
2018-04-10T08:32:47.175Z,4.20
2018-04-10T08:35:18.002Z,7.70
2018-04-10T08:37:48.872Z,5.70
2018-04-10T08:40:19.155Z,5.53
2018-04-10T08:42:49.235Z,5.40
2018-04-10T08:45:19.198Z,5.73
2018-04-10T08:47:49.938Z,5.07
2018-04-10T08:50:21.370Z,6.23
2018-04-10T08:52:51.465Z,3.10
2018-04-10T08:55:21.728Z,6.80
2018-04-10T08:57:52.363Z,4.93
2018-04-10T09:00:23.001Z,5.32
2018-04-10T09:02:53.657Z,6.40
2018-04-10T09:05:24.302Z,4.65
2018-04-10T09:07:54.944Z,3.60
2018-04-10T09:10:25.876Z,5.87
2018-04-10T09:12:56.514Z,3.45
2018-04-10T09:15:27.152Z,5.28
2018-04-10T09:17:57.780Z,5.55
2018-04-10T09:20:29.215Z,3.67
2018-04-10T09:22:59.860Z,5.32
2018-04-10T09:25:30.778Z,5.85
2018-04-10T09:28:01.411Z,7.43
2018-04-10T09:30:32.275Z,4.82
2018-04-10T09:33:02.903Z,6.47
2018-04-10T09:35:33.335Z,4.62
2018-04-10T09:38:03.991Z,4.05
2018-04-10T09:40:34.644Z,4.47
2018-04-10T09:43:05.313Z,3.58
2018-04-10T09:45:35.950Z,3.45
2018-04-10T09:48:06.801Z,7.68
2018-04-10T09:50:38.226Z,4.55
2018-04-10T09:53:08.857Z,7.22
2018-04-10T09:55:39.733Z,6.82
2018-04-10T09:58:10.560Z,7.47
2018-04-10T10:00:41.259Z,5.03
2018-04-10T10:03:11.894Z,4.82
2018-04-10T10:05:42.546Z,7.62
2018-04-10T10:08:13.958Z,6.53
2018-04-10T10:10:44.666Z,5.87
2018-04-10T10:13:15.036Z,7.77
2018-04-10T10:15:45.694Z,7.20
2018-04-10T10:18:16.783Z,3.28
2018-04-10T10:20:47.450Z,5.25
2018-04-10T10:23:19.195Z,6.87
2018-04-10T10:25:50.199Z,4.07
2018-04-10T10:28:20.725Z,6.80
2018-04-10T10:30:51.390Z,4.55
2018-04-10T10:33:22.076Z,3.28
2018-04-10T10:35:52.719Z,7.95
2018-04-10T10:38:23.368Z,2.75
2018-04-10T10:40:54.015Z,4.80
2018-04-10T10:43:24.672Z,3.17
2018-04-10T10:45:55.323Z,3.85
2018-04-10T10:48:25.959Z,4.90
2018-04-10T10:50:56.608Z,4.10
2018-04-10T10:53:27.305Z,3.70
2018-04-10T10:55:58.232Z,4.37
2018-04-10T10:58:28.872Z,5.62
2018-04-10T11:00:59.543Z,5.10
2018-04-10T11:03:30.143Z,5.53
2018-04-10T11:06:01.331Z,4.68
2018-04-10T11:08:31.964Z,4.80
2018-04-10T11:11:03.418Z,3.78
2018-04-10T11:13:34.259Z,5.45
2018-04-10T11:16:04.915Z,4.97
2018-04-10T11:18:35.547Z,5.20
2018-04-10T11:21:06.396Z,6.28
2018-04-10T11:23:37.054Z,6.93
2018-04-10T11:26:08.483Z,6.87
2018-04-10T11:28:39.124Z,6.15
2018-04-10T11:31:09.465Z,8.57
2018-04-10T11:33:41.061Z,5.53
2018-04-10T11:36:11.916Z,5.13
2018-04-10T11:38:42.574Z,7.93
2018-04-10T11:41:13.510Z,4.80
2018-04-10T11:43:44.362Z,6.18
2018-04-10T11:46:15.531Z,9.82
2018-04-10T11:48:46.170Z,7.62
2018-04-10T11:51:17.125Z,9.90
2018-04-10T11:53:47.753Z,6.97
2018-04-10T11:56:18.444Z,5.70
2018-04-10T11:58:49.844Z,4.93
2018-04-10T12:01:20.818Z,7.62
2018-04-10T12:03:51.430Z,7.95
2018-04-10T12:06:22.081Z,9.60
2018-04-10T12:08:52.703Z,9.50
2018-04-10T12:11:22.684Z,6.90
2018-04-10T12:13:54.107Z,6.68
2018-04-10T12:16:24.780Z,6.93
2018-04-10T12:18:55.407Z,6.40
2018-04-10T12:21:26.067Z,9.27
2018-04-10T12:23:56.718Z,7.75
2018-04-10T12:26:27.346Z,7.22
2018-04-10T12:28:57.989Z,9.02
2018-04-10T12:31:28.653Z,8.40
2018-04-10T12:33:59.332Z,8.13
2018-04-10T12:36:30.800Z,10.82
2018-04-10T12:39:01.184Z,15.15
2018-04-10T12:41:31.845Z,7.18
2018-04-10T12:44:02.497Z,9.20
2018-04-10T12:46:34.195Z,12.52
2018-04-10T12:49:05.894Z,11.98
2018-04-10T12:51:36.546Z,9.60
2018-04-10T12:54:07.190Z,8.15
2018-04-10T12:56:37.842Z,8.90
2018-04-10T12:59:08.422Z,8.77
2018-04-10T13:01:39.073Z,8.77
2018-04-10T13:04:09.748Z,7.93
2018-04-10T13:06:40.398Z,8.05
2018-04-10T13:09:10.841Z,8.50
2018-04-10T13:11:41.494Z,12.18
2018-04-10T13:14:12.165Z,8.93
2018-04-10T13:16:42.820Z,11.65
2018-04-10T13:19:13.527Z,16.05
2018-04-10T13:21:44.361Z,10.18
2018-04-10T13:24:15.050Z,9.80
2018-04-10T13:26:45.718Z,12.23
2018-04-10T13:29:16.384Z,12.37
2018-04-10T13:31:46.693Z,12.73
2018-04-10T13:34:18.124Z,13.68
2018-04-10T13:36:48.783Z,17.45
2018-04-10T13:39:19.609Z,12.20
2018-04-10T13:41:50.197Z,9.50
2018-04-10T13:44:20.865Z,8.98
2018-04-10T13:46:51.475Z,12.18
2018-04-10T13:49:22.898Z,9.85
2018-04-10T13:51:53.594Z,8.50
2018-04-10T13:54:24.268Z,8.95
2018-04-10T13:56:55.674Z,9.90
2018-04-10T13:59:26.336Z,11.70
2018-04-10T14:01:57.285Z,6.87
2018-04-10T14:04:27.740Z,5.62
2018-04-10T14:06:58.165Z,4.12
2018-04-10T14:09:28.820Z,4.53
2018-04-10T14:11:58.910Z,3.43
2018-04-10T14:14:28.701Z,3.23
2018-04-10T14:16:58.819Z,4.90
2018-04-10T14:19:28.918Z,3.00
2018-04-10T14:21:59.846Z,2.20
2018-04-10T14:24:29.946Z,2.83
2018-04-10T14:26:59.982Z,4.43
2018-04-10T14:29:30.319Z,4.03
2018-04-10T14:32:01.243Z,4.37
2018-04-10T14:34:31.120Z,1.63
2018-04-10T14:37:01.029Z,3.10
2018-04-10T14:39:33.034Z,1.90
2018-04-10T14:42:04.289Z,2.90
2018-04-10T14:44:34.132Z,4.90
2018-04-10T14:47:05.072Z,1.90
2018-04-10T14:49:35.877Z,2.87
2018-04-10T14:52:05.760Z,1.60
2018-04-10T14:54:35.882Z,2.33
2018-04-10T14:57:06.261Z,1.97
2018-04-10T14:59:37.432Z,3.33
2018-04-10T15:02:07.585Z,1.80
2018-04-10T15:04:37.687Z,3.17
2018-04-10T15:07:08.898Z,1.20
2018-04-10T15:09:39.976Z,1.17
2018-04-10T15:12:10.411Z,1.50
2018-04-10T15:14:41.011Z,0.90
2018-04-10T15:17:10.935Z,1.40
2018-04-10T15:19:40.825Z,3.67
2018-04-10T15:22:13.429Z,1.20
2018-04-10T15:24:50.136Z,1.93
2018-04-10T15:27:20.102Z,2.73
2018-04-10T15:29:50.635Z,1.80
2018-04-10T15:32:21.189Z,1.73
2018-04-10T15:34:53.364Z,1.63
2018-04-10T15:37:23.867Z,3.43
2018-04-10T15:39:54.315Z,4.03
2018-04-10T15:42:24.445Z,1.77
2018-04-10T15:44:54.846Z,1.57
2018-04-10T15:47:25.093Z,2.90
2018-04-10T15:49:56.137Z,3.47
2018-04-10T15:52:26.629Z,2.00
2018-04-10T15:54:56.990Z,2.63
2018-04-10T15:57:27.145Z,4.43
2018-04-10T15:59:57.668Z,2.27
2018-04-10T16:02:27.901Z,2.20
2018-04-10T16:04:58.024Z,2.20
2018-04-10T16:07:28.236Z,3.57
2018-04-10T16:09:58.454Z,3.87
2018-04-10T16:12:29.662Z,1.47
2018-04-10T16:15:00.089Z,2.17
2018-04-10T16:17:31.011Z,1.70
2018-04-10T16:20:01.967Z,1.53
2018-04-10T16:22:32.793Z,1.70
2018-04-10T16:25:05.239Z,1.60
2018-04-10T16:27:37.558Z,1.07
2018-04-10T16:30:07.986Z,2.77
2018-04-10T16:32:38.184Z,3.77
2018-04-10T16:35:08.374Z,4.53
2018-04-10T16:37:38.496Z,2.93
2018-04-10T16:40:08.732Z,2.73
2018-04-10T16:42:40.008Z,1.50
2018-04-10T16:45:10.166Z,2.63
2018-04-10T16:47:40.284Z,2.50
2018-04-10T16:50:11.337Z,5.23
2018-04-10T16:52:41.671Z,3.57
2018-04-10T16:55:12.116Z,2.87
2018-04-10T16:57:42.333Z,1.77
2018-04-10T17:00:12.409Z,6.10
2018-04-10T17:02:42.806Z,2.70
2018-04-10T17:05:12.937Z,2.70
2018-04-10T17:07:43.036Z,5.80
2018-04-10T17:10:13.142Z,3.73
2018-04-10T17:12:43.632Z,1.63
2018-04-10T17:15:14.926Z,1.73
2018-04-10T17:17:44.927Z,1.40
2018-04-10T17:20:15.012Z,1.90
2018-04-10T17:22:47.685Z,2.23
2018-04-10T17:49:50.623Z,1.30
2018-04-10T17:52:20.780Z,0.60
2018-04-10T17:58:28.148Z,1.10
2018-04-10T18:01:17.534Z,0.80
2018-04-10T18:07:24.987Z,1.20
2018-04-10T18:10:14.084Z,1.03
2018-04-10T18:19:04.561Z,0.83
2018-04-10T18:21:35.897Z,2.17
2018-04-10T18:24:06.454Z,1.80
2018-04-10T18:29:46.296Z,0.67
2018-04-10T18:32:16.629Z,1.90
2018-04-10T18:34:47.534Z,0.83
2018-04-10T18:37:17.647Z,0.73
2018-04-10T18:39:49.765Z,2.03
2018-04-10T18:42:37.558Z,3.43
2018-04-10T18:48:26.809Z,1.93
2018-04-10T18:51:02.089Z,4.67
2018-04-10T18:59:51.691Z,0.93
2018-04-10T19:02:23.664Z,0.57
2018-04-10T19:04:54.581Z,1.50
2018-04-10T19:10:38.371Z,2.90
2018-04-10T19:13:08.598Z,1.67
2018-04-10T19:15:38.772Z,0.77
2018-04-10T19:20:59.471Z,1.07
2018-04-10T19:23:29.999Z,0.80
2018-04-10T19:29:04.205Z,0.97
2018-04-10T19:38:08.550Z,0.33
2018-04-10T19:40:38.570Z,0.40
2018-04-10T19:43:09.399Z,1.23
2018-04-10T19:45:39.685Z,0.87
2018-04-10T19:48:09.804Z,0.90
2018-04-10T19:50:40.048Z,1.17
2018-04-10T19:53:10.265Z,0.40
2018-04-10T19:55:41.029Z,2.10
2018-04-10T20:01:05.387Z,0.40
2018-04-10T20:03:36.510Z,0.80
2018-04-10T20:12:19.569Z,0.47
2018-04-10T20:14:50.844Z,2.17
2018-04-10T20:17:21.316Z,0.20
2018-04-10T20:19:51.841Z,2.77
2018-04-10T20:22:22.335Z,1.20
2018-04-10T20:24:53.926Z,0.20
2018-04-10T20:27:24.278Z,1.17
2018-04-10T20:29:56.410Z,0.90
2018-04-10T20:35:34.508Z,1.00
2018-04-10T20:38:08.082Z,0.77
2018-04-10T20:40:38.881Z,6.23
2018-04-10T20:43:10.618Z,0.53
2018-04-10T20:45:40.927Z,0.37
2018-04-10T20:48:10.858Z,0.57
2018-04-10T20:50:41.011Z,0.20
2018-04-10T20:53:11.558Z,0.30
2018-04-10T20:55:42.254Z,0.50
2018-04-10T20:58:12.355Z,2.10
2018-04-10T21:00:42.907Z,0.53
2018-04-10T21:03:13.128Z,0.77
2018-04-10T21:05:44.061Z,0.77
2018-04-10T21:08:14.445Z,1.20
2018-04-10T21:10:45.972Z,0.70
2018-04-10T21:13:18.115Z,1.10
2018-04-10T21:15:49.490Z,1.07
2018-04-10T21:18:23.920Z,0.80
2018-04-10T21:20:58.943Z,0.80
2018-04-10T21:23:29.508Z,1.67
2018-04-10T21:26:04.984Z,1.97
2018-04-10T21:28:38.837Z,3.37
2018-04-10T21:31:12.156Z,2.73
2018-04-10T21:33:48.189Z,4.27
2018-04-10T21:36:19.096Z,2.80
2018-04-10T21:38:49.903Z,1.33
2018-04-10T21:41:20.461Z,2.23
2018-04-10T21:43:51.490Z,1.80
2018-04-10T21:46:21.871Z,2.20
2018-04-10T21:48:55.585Z,2.63
2018-04-10T21:51:31.048Z,1.07
2018-04-10T21:59:24.116Z,1.73
2018-04-10T22:01:54.169Z,3.40
2018-04-10T22:04:24.472Z,2.37
2018-04-10T22:06:54.682Z,1.27
2018-04-10T22:09:25.378Z,2.37
2018-04-10T22:11:59.134Z,2.70
2018-04-10T22:14:30.165Z,1.23
2018-04-10T22:17:00.588Z,2.50
2018-04-10T22:19:32.977Z,1.83
2018-04-10T22:22:03.475Z,1.73
2018-04-10T22:24:38.044Z,1.97
2018-04-10T22:27:11.354Z,1.60
2018-04-10T22:29:53.050Z,1.17
2018-04-10T22:32:24.372Z,2.07
2018-04-10T22:34:59.275Z,2.30
2018-04-10T22:37:33.669Z,1.50
2018-04-10T22:40:04.694Z,1.10
2018-04-10T22:42:34.667Z,1.37
2018-04-10T22:45:03.853Z,1.30
2018-04-10T22:47:37.149Z,3.17
2018-04-10T22:50:15.352Z,3.07
2018-04-10T22:52:51.050Z,1.10
2018-04-10T22:55:23.415Z,2.43
2018-04-10T22:57:53.809Z,1.37
2018-04-10T23:00:55.869Z,1.93
2018-04-10T23:03:26.069Z,2.10
2018-04-10T23:05:56.263Z,1.83
2018-04-10T23:08:27.295Z,3.67
2018-04-10T23:11:00.089Z,1.33
2018-04-10T23:13:31.949Z,1.77
2018-04-10T23:16:01.949Z,1.07
2018-04-10T23:18:32.530Z,2.30
2018-04-10T23:21:03.091Z,1.70
2018-04-10T23:23:33.863Z,3.30
2018-04-10T23:26:04.252Z,1.83
2018-04-10T23:28:35.092Z,0.90
2018-04-10T23:31:05.210Z,2.27
2018-04-10T23:33:36.735Z,2.37
2018-04-10T23:36:06.925Z,3.47
2018-04-10T23:38:37.773Z,1.63
2018-04-10T23:41:08.242Z,4.67
2018-04-10T23:43:38.197Z,1.63
2018-04-10T23:46:08.309Z,2.13
2018-04-10T23:48:38.368Z,3.00
2018-04-10T23:51:10.181Z,3.13
2018-04-10T23:53:40.768Z,5.57
2018-04-10T23:56:11.924Z,4.43
2018-04-10T23:58:43.341Z,3.87
